sensor_id;sensor_type;location;lat;lon;timestamp;temperature;humidity
24638;DHT22;12773;50.162;8.548;2023-11-19T00:00:46;9.50;99.90
24638;DHT22;12773;50.162;8.548;2023-11-19T00:03:35;9.60;99.90
24638;DHT22;12773;50.162;8.548;2023-11-19T00:06:22;9.60;99.90
24638;DHT22;12773;50.162;8.548;2023-11-19T00:09:11;9.50;99.90
24638;DHT22;12773;50.162;8.548;2023-11-19T00:12:00;9.60;99.90
24638;DHT22;12773;50.162;8.548;2023-11-19T00:14:48;9.60;99.90
24638;DHT22;12773;50.162;8.548;2023-11-19T00:17:35;9.60;99.90
24638;DHT22;12773;50.162;8.548;2023-11-19T00:20:23;9.60;99.90
24638;DHT22;12773;50.162;8.548;2023-11-19T00:23:10;9.70;99.90
24638;DHT22;12773;50.162;8.548;2023-11-19T00:25:58;9.70;99.90
24638;DHT22;12773;50.162;8.548;2023-11-19T00:28:45;9.60;99.90
24638;DHT22;12773;50.162;8.548;2023-11-19T00:31:34;9.40;99.90
24638;DHT22;12773;50.162;8.548;2023-11-19T00:34:22;9.40;99.90
24638;DHT22;12773;50.162;8.548;2023-11-19T00:37:09;9.50;99.90
24638;DHT22;12773;50.162;8.548;2023-11-19T00:39:57;9.50;99.90
24638;DHT22;12773;50.162;8.548;2023-11-19T00:42:44;9.60;99.90
24638;DHT22;12773;50.162;8.548;2023-11-19T00:45:32;9.60;99.90
24638;DHT22;12773;50.162;8.548;2023-11-19T00:48:19;9.60;99.90
24638;DHT22;12773;50.162;8.548;2023-11-19T00:51:07;9.60;99.90
24638;DHT22;12773;50.162;8.548;2023-11-19T00:53:54;9.60;99.90
24638;DHT22;12773;50.162;8.548;2023-11-19T00:56:42;9.60;99.90
24638;DHT22;12773;50.162;8.548;2023-11-19T00:59:31;9.60;99.90
24638;DHT22;12773;50.162;8.548;2023-11-19T01:02:18;9.60;99.90
24638;DHT22;12773;50.162;8.548;2023-11-19T01:05:08;9.60;99.90
24638;DHT22;12773;50.162;8.548;2023-11-19T01:07:55;9.60;99.90
24638;DHT22;12773;50.162;8.548;2023-11-19T01:10:43;9.70;99.90
24638;DHT22;12773;50.162;8.548;2023-11-19T01:13:32;9.70;99.90
24638;DHT22;12773;50.162;8.548;2023-11-19T01:16:20;9.80;99.90
24638;DHT22;12773;50.162;8.548;2023-11-19T01:19:09;9.70;99.90
24638;DHT22;12773;50.162;8.548;2023-11-19T01:21:59;9.80;99.90
24638;DHT22;12773;50.162;8.548;2023-11-19T01:24:46;9.90;99.90
24638;DHT22;12773;50.162;8.548;2023-11-19T01:27:34;10.00;99.90
24638;DHT22;12773;50.162;8.548;2023-11-19T01:30:22;10.00;99.90
24638;DHT22;12773;50.162;8.548;2023-11-19T01:33:09;10.00;99.90
24638;DHT22;12773;50.162;8.548;2023-11-19T01:35:57;10.10;99.90
24638;DHT22;12773;50.162;8.548;2023-11-19T01:38:45;10.20;99.90
24638;DHT22;12773;50.162;8.548;2023-11-19T01:41:36;10.10;99.90
24638;DHT22;12773;50.162;8.548;2023-11-19T01:44:25;10.10;99.90
24638;DHT22;12773;50.162;8.548;2023-11-19T01:47:13;10.00;99.90
24638;DHT22;12773;50.162;8.548;2023-11-19T01:50:02;10.00;99.90
24638;DHT22;12773;50.162;8.548;2023-11-19T01:52:53;10.00;99.90
24638;DHT22;12773;50.162;8.548;2023-11-19T01:55:43;10.00;99.90
24638;DHT22;12773;50.162;8.548;2023-11-19T01:58:31;9.90;99.90
24638;DHT22;12773;50.162;8.548;2023-11-19T02:01:19;9.90;99.90
24638;DHT22;12773;50.162;8.548;2023-11-19T02:04:08;9.90;99.90
24638;DHT22;12773;50.162;8.548;2023-11-19T02:06:57;9.90;99.90
24638;DHT22;12773;50.162;8.548;2023-11-19T02:09:45;9.90;99.90
24638;DHT22;12773;50.162;8.548;2023-11-19T02:12:32;9.90;99.90
24638;DHT22;12773;50.162;8.548;2023-11-19T02:15:23;9.80;99.90
24638;DHT22;12773;50.162;8.548;2023-11-19T02:18:24;9.80;99.90
24638;DHT22;12773;50.162;8.548;2023-11-19T02:21:14;9.90;99.90
24638;DHT22;12773;50.162;8.548;2023-11-19T02:24:06;9.90;99.90
24638;DHT22;12773;50.162;8.548;2023-11-19T02:27:08;9.90;99.90
24638;DHT22;12773;50.162;8.548;2023-11-19T02:29:56;9.90;99.90
24638;DHT22;12773;50.162;8.548;2023-11-19T02:32:44;9.90;99.90
24638;DHT22;12773;50.162;8.548;2023-11-19T02:35:33;10.00;99.90
24638;DHT22;12773;50.162;8.548;2023-11-19T02:38:20;10.00;99.90
24638;DHT22;12773;50.162;8.548;2023-11-19T02:41:08;10.00;99.90
24638;DHT22;12773;50.162;8.548;2023-11-19T02:43:56;10.00;99.90
24638;DHT22;12773;50.162;8.548;2023-11-19T02:46:44;10.00;99.90
24638;DHT22;12773;50.162;8.548;2023-11-19T02:49:33;10.10;99.90
24638;DHT22;12773;50.162;8.548;2023-11-19T02:52:21;10.00;99.90
24638;DHT22;12773;50.162;8.548;2023-11-19T02:55:10;9.90;99.90
24638;DHT22;12773;50.162;8.548;2023-11-19T02:57:58;10.00;99.90
24638;DHT22;12773;50.162;8.548;2023-11-19T03:00:47;10.10;99.90
24638;DHT22;12773;50.162;8.548;2023-11-19T03:03:35;10.00;99.90
24638;DHT22;12773;50.162;8.548;2023-11-19T03:06:27;10.00;99.90
24638;DHT22;12773;50.162;8.548;2023-11-19T03:09:15;9.90;99.90
24638;DHT22;12773;50.162;8.548;2023-11-19T03:12:02;10.00;99.90
24638;DHT22;12773;50.162;8.548;2023-11-19T03:14:52;10.10;99.90
24638;DHT22;12773;50.162;8.548;2023-11-19T03:17:40;10.10;99.90
24638;DHT22;12773;50.162;8.548;2023-11-19T03:20:28;10.00;99.90
24638;DHT22;12773;50.162;8.548;2023-11-19T03:23:16;10.10;99.90
24638;DHT22;12773;50.162;8.548;2023-11-19T03:26:04;10.20;99.90
24638;DHT22;12773;50.162;8.548;2023-11-19T03:28:52;10.10;99.90
24638;DHT22;12773;50.162;8.548;2023-11-19T03:31:43;10.20;99.90
24638;DHT22;12773;50.162;8.548;2023-11-19T03:34:31;10.30;99.90
24638;DHT22;12773;50.162;8.548;2023-11-19T03:37:18;10.30;99.90
24638;DHT22;12773;50.162;8.548;2023-11-19T03:40:06;10.40;99.90
24638;DHT22;12773;50.162;8.548;2023-11-19T03:42:55;10.30;99.90
24638;DHT22;12773;50.162;8.548;2023-11-19T03:45:44;10.40;99.90
24638;DHT22;12773;50.162;8.548;2023-11-19T03:48:32;10.40;99.90
24638;DHT22;12773;50.162;8.548;2023-11-19T03:51:20;10.40;99.90
24638;DHT22;12773;50.162;8.548;2023-11-19T03:54:08;10.40;99.90
24638;DHT22;12773;50.162;8.548;2023-11-19T03:56:56;10.30;99.90
24638;DHT22;12773;50.162;8.548;2023-11-19T03:59:43;10.30;99.90
24638;DHT22;12773;50.162;8.548;2023-11-19T04:02:31;10.30;99.90
24638;DHT22;12773;50.162;8.548;2023-11-19T04:05:19;10.30;99.90
24638;DHT22;12773;50.162;8.548;2023-11-19T04:08:06;10.30;99.90
24638;DHT22;12773;50.162;8.548;2023-11-19T04:10:54;10.40;99.90
24638;DHT22;12773;50.162;8.548;2023-11-19T04:13:41;10.40;99.90
24638;DHT22;12773;50.162;8.548;2023-11-19T04:16:30;10.40;99.90
24638;DHT22;12773;50.162;8.548;2023-11-19T04:19:19;10.50;99.90
24638;DHT22;12773;50.162;8.548;2023-11-19T04:22:09;10.50;99.90
24638;DHT22;12773;50.162;8.548;2023-11-19T04:24:57;10.60;99.90
24638;DHT22;12773;50.162;8.548;2023-11-19T04:27:44;10.60;99.90
24638;DHT22;12773;50.162;8.548;2023-11-19T04:30:34;10.60;99.90
24638;DHT22;12773;50.162;8.548;2023-11-19T04:33:22;10.50;99.90
24638;DHT22;12773;50.162;8.548;2023-11-19T04:36:10;10.60;99.90
24638;DHT22;12773;50.162;8.548;2023-11-19T04:38:58;10.60;99.90
24638;DHT22;12773;50.162;8.548;2023-11-19T04:41:48;10.60;99.90
24638;DHT22;12773;50.162;8.548;2023-11-19T04:44:43;10.60;99.90
24638;DHT22;12773;50.162;8.548;2023-11-19T04:47:31;10.60;99.90
24638;DHT22;12773;50.162;8.548;2023-11-19T04:50:18;10.70;99.90
24638;DHT22;12773;50.162;8.548;2023-11-19T04:53:05;10.70;99.90
24638;DHT22;12773;50.162;8.548;2023-11-19T04:55:53;10.60;99.90
24638;DHT22;12773;50.162;8.548;2023-11-19T04:58:40;10.70;99.90
24638;DHT22;12773;50.162;8.548;2023-11-19T05:01:28;10.70;99.90
24638;DHT22;12773;50.162;8.548;2023-11-19T05:04:16;10.80;99.90
24638;DHT22;12773;50.162;8.548;2023-11-19T05:07:05;10.90;99.90
24638;DHT22;12773;50.162;8.548;2023-11-19T05:09:53;10.90;99.90
24638;DHT22;12773;50.162;8.548;2023-11-19T05:12:41;10.90;99.90
24638;DHT22;12773;50.162;8.548;2023-11-19T05:15:29;10.90;99.90
24638;DHT22;12773;50.162;8.548;2023-11-19T05:18:16;10.80;99.90
24638;DHT22;12773;50.162;8.548;2023-11-19T05:21:04;10.80;99.90
24638;DHT22;12773;50.162;8.548;2023-11-19T05:23:51;10.80;99.90
24638;DHT22;12773;50.162;8.548;2023-11-19T05:26:38;10.70;99.90
24638;DHT22;12773;50.162;8.548;2023-11-19T05:29:27;10.70;99.90
24638;DHT22;12773;50.162;8.548;2023-11-19T05:32:15;10.70;99.90
24638;DHT22;12773;50.162;8.548;2023-11-19T05:35:03;10.80;99.90
24638;DHT22;12773;50.162;8.548;2023-11-19T05:37:50;10.80;99.90
24638;DHT22;12773;50.162;8.548;2023-11-19T05:40:38;10.80;99.90
24638;DHT22;12773;50.162;8.548;2023-11-19T05:43:26;10.90;99.90
24638;DHT22;12773;50.162;8.548;2023-11-19T05:46:16;10.90;99.90
24638;DHT22;12773;50.162;8.548;2023-11-19T05:49:05;10.90;99.90
24638;DHT22;12773;50.162;8.548;2023-11-19T05:51:52;10.90;99.90
24638;DHT22;12773;50.162;8.548;2023-11-19T05:54:42;10.80;99.90
24638;DHT22;12773;50.162;8.548;2023-11-19T05:57:29;10.90;99.90
24638;DHT22;12773;50.162;8.548;2023-11-19T06:00:21;10.90;99.90
24638;DHT22;12773;50.162;8.548;2023-11-19T06:03:09;10.90;99.90
24638;DHT22;12773;50.162;8.548;2023-11-19T06:05:56;10.90;99.90
24638;DHT22;12773;50.162;8.548;2023-11-19T06:08:44;10.90;99.90
24638;DHT22;12773;50.162;8.548;2023-11-19T06:11:33;10.90;99.90
24638;DHT22;12773;50.162;8.548;2023-11-19T06:14:20;11.00;99.90
24638;DHT22;12773;50.162;8.548;2023-11-19T06:17:08;11.00;99.90
24638;DHT22;12773;50.162;8.548;2023-11-19T06:19:57;11.00;99.90
24638;DHT22;12773;50.162;8.548;2023-11-19T06:22:44;11.00;99.90
24638;DHT22;12773;50.162;8.548;2023-11-19T06:25:32;11.20;99.90
24638;DHT22;12773;50.162;8.548;2023-11-19T06:28:21;11.30;99.90
24638;DHT22;12773;50.162;8.548;2023-11-19T06:31:09;11.30;99.90
24638;DHT22;12773;50.162;8.548;2023-11-19T06:33:57;11.40;99.90
24638;DHT22;12773;50.162;8.548;2023-11-19T06:36:44;11.40;99.90
24638;DHT22;12773;50.162;8.548;2023-11-19T06:39:32;11.50;99.90
24638;DHT22;12773;50.162;8.548;2023-11-19T06:42:21;11.50;99.90
24638;DHT22;12773;50.162;8.548;2023-11-19T06:45:09;11.50;99.90
24638;DHT22;12773;50.162;8.548;2023-11-19T06:47:57;11.40;99.90
24638;DHT22;12773;50.162;8.548;2023-11-19T06:50:45;11.40;99.90
24638;DHT22;12773;50.162;8.548;2023-11-19T06:53:32;11.40;99.90
24638;DHT22;12773;50.162;8.548;2023-11-19T06:56:23;11.40;99.90
24638;DHT22;12773;50.162;8.548;2023-11-19T06:59:11;11.40;99.90
24638;DHT22;12773;50.162;8.548;2023-11-19T07:01:59;11.50;99.90
24638;DHT22;12773;50.162;8.548;2023-11-19T07:04:46;11.50;99.90
24638;DHT22;12773;50.162;8.548;2023-11-19T07:07:34;11.60;99.90
24638;DHT22;12773;50.162;8.548;2023-11-19T07:10:22;11.50;99.90
24638;DHT22;12773;50.162;8.548;2023-11-19T07:13:10;11.50;99.90
24638;DHT22;12773;50.162;8.548;2023-11-19T07:15:57;11.50;99.90
24638;DHT22;12773;50.162;8.548;2023-11-19T07:18:45;11.50;99.90
24638;DHT22;12773;50.162;8.548;2023-11-19T07:21:33;11.50;99.90
24638;DHT22;12773;50.162;8.548;2023-11-19T07:24:21;11.60;99.90
24638;DHT22;12773;50.162;8.548;2023-11-19T07:27:08;11.60;99.90
24638;DHT22;12773;50.162;8.548;2023-11-19T07:29:56;11.60;99.90
24638;DHT22;12773;50.162;8.548;2023-11-19T07:32:44;11.60;99.90
24638;DHT22;12773;50.162;8.548;2023-11-19T07:35:32;11.60;99.90
24638;DHT22;12773;50.162;8.548;2023-11-19T07:38:19;11.60;99.90
24638;DHT22;12773;50.162;8.548;2023-11-19T07:41:07;11.60;99.90
24638;DHT22;12773;50.162;8.548;2023-11-19T07:43:56;11.70;99.90
24638;DHT22;12773;50.162;8.548;2023-11-19T07:46:44;11.70;99.90
24638;DHT22;12773;50.162;8.548;2023-11-19T07:49:31;11.80;99.90
24638;DHT22;12773;50.162;8.548;2023-11-19T07:52:19;11.70;99.90
24638;DHT22;12773;50.162;8.548;2023-11-19T07:55:07;11.70;99.90
24638;DHT22;12773;50.162;8.548;2023-11-19T07:57:56;11.80;99.90
24638;DHT22;12773;50.162;8.548;2023-11-19T08:00:43;11.90;99.90
24638;DHT22;12773;50.162;8.548;2023-11-19T08:03:31;11.90;99.90
24638;DHT22;12773;50.162;8.548;2023-11-19T08:06:18;12.00;99.90
24638;DHT22;12773;50.162;8.548;2023-11-19T08:09:06;12.10;99.90
24638;DHT22;12773;50.162;8.548;2023-11-19T08:11:55;12.10;99.90
24638;DHT22;12773;50.162;8.548;2023-11-19T08:14:43;12.10;99.90
24638;DHT22;12773;50.162;8.548;2023-11-19T08:17:31;12.20;99.90
24638;DHT22;12773;50.162;8.548;2023-11-19T08:20:18;12.30;99.90
24638;DHT22;12773;50.162;8.548;2023-11-19T08:23:06;12.30;99.90
24638;DHT22;12773;50.162;8.548;2023-11-19T08:25:54;12.30;99.90
24638;DHT22;12773;50.162;8.548;2023-11-19T08:28:42;12.20;99.90
24638;DHT22;12773;50.162;8.548;2023-11-19T08:31:29;12.30;99.90
24638;DHT22;12773;50.162;8.548;2023-11-19T08:34:17;12.30;99.90
24638;DHT22;12773;50.162;8.548;2023-11-19T08:37:05;12.40;99.90
24638;DHT22;12773;50.162;8.548;2023-11-19T08:39:52;12.30;99.90
24638;DHT22;12773;50.162;8.548;2023-11-19T08:42:40;12.20;99.90
24638;DHT22;12773;50.162;8.548;2023-11-19T08:45:27;12.20;99.90
24638;DHT22;12773;50.162;8.548;2023-11-19T08:48:15;12.10;99.90
24638;DHT22;12773;50.162;8.548;2023-11-19T08:51:02;12.10;99.90
24638;DHT22;12773;50.162;8.548;2023-11-19T08:53:51;12.10;99.90
24638;DHT22;12773;50.162;8.548;2023-11-19T08:56:38;12.10;99.90
24638;DHT22;12773;50.162;8.548;2023-11-19T08:59:26;12.20;99.90
24638;DHT22;12773;50.162;8.548;2023-11-19T09:02:13;12.20;99.90
24638;DHT22;12773;50.162;8.548;2023-11-19T09:05:05;12.20;99.90
24638;DHT22;12773;50.162;8.548;2023-11-19T09:07:53;12.20;99.90
24638;DHT22;12773;50.162;8.548;2023-11-19T09:10:41;12.40;99.90
24638;DHT22;12773;50.162;8.548;2023-11-19T09:13:28;12.70;99.90
24638;DHT22;12773;50.162;8.548;2023-11-19T09:16:16;12.90;99.90
24638;DHT22;12773;50.162;8.548;2023-11-19T09:19:03;13.20;99.90
24638;DHT22;12773;50.162;8.548;2023-11-19T09:21:53;13.50;99.90
24638;DHT22;12773;50.162;8.548;2023-11-19T09:24:41;13.90;99.90
24638;DHT22;12773;50.162;8.548;2023-11-19T09:27:30;14.20;99.90
24638;DHT22;12773;50.162;8.548;2023-11-19T09:30:18;14.50;99.90
24638;DHT22;12773;50.162;8.548;2023-11-19T09:33:05;14.70;99.90
24638;DHT22;12773;50.162;8.548;2023-11-19T09:35:53;14.90;99.90
24638;DHT22;12773;50.162;8.548;2023-11-19T09:38:41;15.10;99.90
24638;DHT22;12773;50.162;8.548;2023-11-19T09:41:30;15.30;99.90
24638;DHT22;12773;50.162;8.548;2023-11-19T09:44:18;15.20;99.90
24638;DHT22;12773;50.162;8.548;2023-11-19T09:47:06;15.20;99.90
24638;DHT22;12773;50.162;8.548;2023-11-19T09:49:55;15.30;99.90
24638;DHT22;12773;50.162;8.548;2023-11-19T09:52:44;15.40;99.90
24638;DHT22;12773;50.162;8.548;2023-11-19T09:55:32;15.50;99.90
24638;DHT22;12773;50.162;8.548;2023-11-19T09:58:19;15.70;99.90
24638;DHT22;12773;50.162;8.548;2023-11-19T10:01:07;16.00;99.90
24638;DHT22;12773;50.162;8.548;2023-11-19T10:03:58;15.90;99.90
24638;DHT22;12773;50.162;8.548;2023-11-19T10:06:46;15.90;99.90
24638;DHT22;12773;50.162;8.548;2023-11-19T10:09:34;16.20;99.90
24638;DHT22;12773;50.162;8.548;2023-11-19T10:12:21;16.40;99.90
24638;DHT22;12773;50.162;8.548;2023-11-19T10:15:12;16.40;99.90
24638;DHT22;12773;50.162;8.548;2023-11-19T10:17:59;16.40;99.90
24638;DHT22;12773;50.162;8.548;2023-11-19T10:20:47;16.60;99.90
24638;DHT22;12773;50.162;8.548;2023-11-19T10:23:52;16.60;99.90
24638;DHT22;12773;50.162;8.548;2023-11-19T10:26:40;16.50;99.90
24638;DHT22;12773;50.162;8.548;2023-11-19T10:29:29;16.80;99.90
24638;DHT22;12773;50.162;8.548;2023-11-19T10:32:17;16.60;99.90
24638;DHT22;12773;50.162;8.548;2023-11-19T10:35:06;16.80;99.90
24638;DHT22;12773;50.162;8.548;2023-11-19T10:37:54;17.10;99.90
24638;DHT22;12773;50.162;8.548;2023-11-19T10:40:42;17.30;99.90
24638;DHT22;12773;50.162;8.548;2023-11-19T10:43:29;17.20;99.90
24638;DHT22;12773;50.162;8.548;2023-11-19T10:46:17;17.50;99.90
24638;DHT22;12773;50.162;8.548;2023-11-19T10:49:07;17.60;99.90
24638;DHT22;12773;50.162;8.548;2023-11-19T10:51:56;17.60;99.90
24638;DHT22;12773;50.162;8.548;2023-11-19T10:54:45;17.50;99.90
24638;DHT22;12773;50.162;8.548;2023-11-19T10:57:35;17.30;99.90
24638;DHT22;12773;50.162;8.548;2023-11-19T11:00:25;17.70;99.90
24638;DHT22;12773;50.162;8.548;2023-11-19T11:03:21;17.90;99.90
24638;DHT22;12773;50.162;8.548;2023-11-19T11:06:09;17.70;99.90
24638;DHT22;12773;50.162;8.548;2023-11-19T11:08:58;17.40;99.90
24638;DHT22;12773;50.162;8.548;2023-11-19T11:11:47;17.30;99.90
24638;DHT22;12773;50.162;8.548;2023-11-19T11:14:37;17.30;99.90
24638;DHT22;12773;50.162;8.548;2023-11-19T11:17:28;17.20;99.90
24638;DHT22;12773;50.162;8.548;2023-11-19T11:20:18;17.20;99.90
24638;DHT22;12773;50.162;8.548;2023-11-19T11:26:34;17.10;99.90
24638;DHT22;12773;50.162;8.548;2023-11-19T11:29:29;17.00;99.90
24638;DHT22;12773;50.162;8.548;2023-11-19T11:32:25;17.50;99.90
24638;DHT22;12773;50.162;8.548;2023-11-19T11:35:24;17.30;99.90
24638;DHT22;12773;50.162;8.548;2023-11-19T11:38:11;17.60;99.90
24638;DHT22;12773;50.162;8.548;2023-11-19T11:44:07;17.60;99.90
24638;DHT22;12773;50.162;8.548;2023-11-19T11:46:55;17.70;99.90
24638;DHT22;12773;50.162;8.548;2023-11-19T11:49:44;17.90;99.90
24638;DHT22;12773;50.162;8.548;2023-11-19T11:52:32;17.70;99.90
24638;DHT22;12773;50.162;8.548;2023-11-19T11:55:24;17.60;99.90
24638;DHT22;12773;50.162;8.548;2023-11-19T11:58:12;17.80;99.90
24638;DHT22;12773;50.162;8.548;2023-11-19T12:01:04;17.90;99.90
24638;DHT22;12773;50.162;8.548;2023-11-19T12:03:55;17.80;99.90
24638;DHT22;12773;50.162;8.548;2023-11-19T12:06:41;17.70;99.90
24638;DHT22;12773;50.162;8.548;2023-11-19T12:09:29;17.60;99.90
24638;DHT22;12773;50.162;8.548;2023-11-19T12:12:21;17.60;99.90
24638;DHT22;12773;50.162;8.548;2023-11-19T12:15:10;17.50;99.90
24638;DHT22;12773;50.162;8.548;2023-11-19T12:17:58;17.60;99.90
24638;DHT22;12773;50.162;8.548;2023-11-19T12:20:45;17.40;99.90
24638;DHT22;12773;50.162;8.548;2023-11-19T12:23:33;17.40;99.90
24638;DHT22;12773;50.162;8.548;2023-11-19T12:26:32;17.40;99.90
24638;DHT22;12773;50.162;8.548;2023-11-19T12:29:20;17.40;99.90
24638;DHT22;12773;50.162;8.548;2023-11-19T12:32:08;17.50;99.90
24638;DHT22;12773;50.162;8.548;2023-11-19T12:34:57;17.50;99.90
24638;DHT22;12773;50.162;8.548;2023-11-19T12:37:46;17.60;99.90
24638;DHT22;12773;50.162;8.548;2023-11-19T12:40:34;17.50;99.90
24638;DHT22;12773;50.162;8.548;2023-11-19T12:43:23;17.50;99.90
24638;DHT22;12773;50.162;8.548;2023-11-19T12:46:18;17.20;99.90
24638;DHT22;12773;50.162;8.548;2023-11-19T12:49:07;17.20;99.90
24638;DHT22;12773;50.162;8.548;2023-11-19T12:51:54;17.30;99.90
24638;DHT22;12773;50.162;8.548;2023-11-19T12:54:42;17.30;99.90
24638;DHT22;12773;50.162;8.548;2023-11-19T12:57:36;17.10;99.90
24638;DHT22;12773;50.162;8.548;2023-11-19T13:00:26;17.10;99.90
24638;DHT22;12773;50.162;8.548;2023-11-19T13:03:22;17.10;99.90
24638;DHT22;12773;50.162;8.548;2023-11-19T13:06:10;17.10;99.90
24638;DHT22;12773;50.162;8.548;2023-11-19T13:09:01;17.00;99.90
24638;DHT22;12773;50.162;8.548;2023-11-19T13:11:49;17.00;99.90
24638;DHT22;12773;50.162;8.548;2023-11-19T13:14:38;16.90;99.90
24638;DHT22;12773;50.162;8.548;2023-11-19T13:17:26;16.90;99.90
24638;DHT22;12773;50.162;8.548;2023-11-19T13:20:14;17.00;99.90
24638;DHT22;12773;50.162;8.548;2023-11-19T13:23:06;17.10;99.90
24638;DHT22;12773;50.162;8.548;2023-11-19T13:25:54;17.20;99.90
24638;DHT22;12773;50.162;8.548;2023-11-19T13:28:41;17.30;99.90
24638;DHT22;12773;50.162;8.548;2023-11-19T13:31:29;17.30;99.90
24638;DHT22;12773;50.162;8.548;2023-11-19T13:34:17;17.30;99.90
24638;DHT22;12773;50.162;8.548;2023-11-19T13:37:04;17.10;99.90
24638;DHT22;12773;50.162;8.548;2023-11-19T13:39:52;17.00;99.90
24638;DHT22;12773;50.162;8.548;2023-11-19T13:42:40;17.10;99.90
24638;DHT22;12773;50.162;8.548;2023-11-19T13:45:29;17.00;99.90
24638;DHT22;12773;50.162;8.548;2023-11-19T13:48:16;16.70;99.90
24638;DHT22;12773;50.162;8.548;2023-11-19T13:51:04;16.60;99.90
24638;DHT22;12773;50.162;8.548;2023-11-19T13:53:52;16.60;99.90
24638;DHT22;12773;50.162;8.548;2023-11-19T13:56:40;16.60;99.90
24638;DHT22;12773;50.162;8.548;2023-11-19T13:59:30;16.50;99.90
24638;DHT22;12773;50.162;8.548;2023-11-19T14:02:19;16.30;99.90
24638;DHT22;12773;50.162;8.548;2023-11-19T14:05:07;16.30;99.90
24638;DHT22;12773;50.162;8.548;2023-11-19T14:07:54;16.40;99.90
24638;DHT22;12773;50.162;8.548;2023-11-19T14:10:43;16.40;99.90
24638;DHT22;12773;50.162;8.548;2023-11-19T14:13:30;16.30;99.90
24638;DHT22;12773;50.162;8.548;2023-11-19T14:16:18;16.20;99.90
24638;DHT22;12773;50.162;8.548;2023-11-19T14:19:05;16.20;99.90
24638;DHT22;12773;50.162;8.548;2023-11-19T14:21:53;16.10;99.90
24638;DHT22;12773;50.162;8.548;2023-11-19T14:24:40;16.20;99.90
24638;DHT22;12773;50.162;8.548;2023-11-19T14:27:29;16.10;99.90
24638;DHT22;12773;50.162;8.548;2023-11-19T14:30:16;16.00;99.90
24638;DHT22;12773;50.162;8.548;2023-11-19T14:33:04;16.00;99.90
24638;DHT22;12773;50.162;8.548;2023-11-19T14:35:52;15.90;99.90
24638;DHT22;12773;50.162;8.548;2023-11-19T14:38:39;15.90;99.90
24638;DHT22;12773;50.162;8.548;2023-11-19T14:41:27;15.70;99.90
24638;DHT22;12773;50.162;8.548;2023-11-19T14:44:15;15.70;99.90
24638;DHT22;12773;50.162;8.548;2023-11-19T14:47:02;15.60;99.90
24638;DHT22;12773;50.162;8.548;2023-11-19T14:49:51;15.50;99.90
24638;DHT22;12773;50.162;8.548;2023-11-19T14:52:39;15.40;99.90
24638;DHT22;12773;50.162;8.548;2023-11-19T14:55:28;15.10;99.90
24638;DHT22;12773;50.162;8.548;2023-11-19T14:58:18;15.20;99.90
24638;DHT22;12773;50.162;8.548;2023-11-19T15:01:06;15.20;99.90
24638;DHT22;12773;50.162;8.548;2023-11-19T15:03:54;15.20;99.90
24638;DHT22;12773;50.162;8.548;2023-11-19T15:06:44;15.20;99.90
24638;DHT22;12773;50.162;8.548;2023-11-19T15:09:34;15.10;99.90
24638;DHT22;12773;50.162;8.548;2023-11-19T15:12:23;15.10;99.90
24638;DHT22;12773;50.162;8.548;2023-11-19T15:15:10;15.10;99.90
24638;DHT22;12773;50.162;8.548;2023-11-19T15:17:59;15.00;99.90
24638;DHT22;12773;50.162;8.548;2023-11-19T15:20:47;14.90;99.90
24638;DHT22;12773;50.162;8.548;2023-11-19T15:23:34;14.90;99.90
24638;DHT22;12773;50.162;8.548;2023-11-19T15:26:23;14.80;99.90
24638;DHT22;12773;50.162;8.548;2023-11-19T15:29:11;14.70;99.90
24638;DHT22;12773;50.162;8.548;2023-11-19T15:32:00;14.60;99.90
24638;DHT22;12773;50.162;8.548;2023-11-19T15:34:49;14.60;99.90
24638;DHT22;12773;50.162;8.548;2023-11-19T15:37:37;14.60;99.90
24638;DHT22;12773;50.162;8.548;2023-11-19T15:40:26;14.50;99.90
24638;DHT22;12773;50.162;8.548;2023-11-19T15:43:14;14.50;99.90
24638;DHT22;12773;50.162;8.548;2023-11-19T15:46:07;14.50;99.90
24638;DHT22;12773;50.162;8.548;2023-11-19T15:48:54;14.50;99.90
24638;DHT22;12773;50.162;8.548;2023-11-19T15:51:42;14.40;99.90
24638;DHT22;12773;50.162;8.548;2023-11-19T15:54:29;14.30;99.90
24638;DHT22;12773;50.162;8.548;2023-11-19T15:57:16;14.30;99.90
24638;DHT22;12773;50.162;8.548;2023-11-19T16:00:04;14.30;99.90
24638;DHT22;12773;50.162;8.548;2023-11-19T16:02:52;14.40;99.90
24638;DHT22;12773;50.162;8.548;2023-11-19T16:05:41;14.40;99.90
24638;DHT22;12773;50.162;8.548;2023-11-19T16:08:29;14.30;99.90
24638;DHT22;12773;50.162;8.548;2023-11-19T16:11:16;14.20;99.90
24638;DHT22;12773;50.162;8.548;2023-11-19T16:14:04;14.30;99.90
24638;DHT22;12773;50.162;8.548;2023-11-19T16:16:52;14.30;99.90
24638;DHT22;12773;50.162;8.548;2023-11-19T16:19:40;14.30;99.90
24638;DHT22;12773;50.162;8.548;2023-11-19T16:22:28;14.10;99.90
24638;DHT22;12773;50.162;8.548;2023-11-19T16:25:16;14.10;99.90
24638;DHT22;12773;50.162;8.548;2023-11-19T16:28:05;14.00;99.90
24638;DHT22;12773;50.162;8.548;2023-11-19T16:30:54;14.00;99.90
24638;DHT22;12773;50.162;8.548;2023-11-19T16:33:42;14.00;99.90
24638;DHT22;12773;50.162;8.548;2023-11-19T16:36:30;13.90;99.90
24638;DHT22;12773;50.162;8.548;2023-11-19T16:39:17;13.90;99.90
24638;DHT22;12773;50.162;8.548;2023-11-19T16:42:05;13.80;99.90
24638;DHT22;12773;50.162;8.548;2023-11-19T16:44:53;13.60;99.90
24638;DHT22;12773;50.162;8.548;2023-11-19T16:47:40;13.60;99.90
24638;DHT22;12773;50.162;8.548;2023-11-19T16:50:28;13.60;99.90
24638;DHT22;12773;50.162;8.548;2023-11-19T16:53:16;13.70;99.90
24638;DHT22;12773;50.162;8.548;2023-11-19T16:56:05;13.60;99.90
24638;DHT22;12773;50.162;8.548;2023-11-19T16:58:53;13.60;99.90
24638;DHT22;12773;50.162;8.548;2023-11-19T17:01:40;13.70;99.90
24638;DHT22;12773;50.162;8.548;2023-11-19T17:04:28;13.60;99.90
24638;DHT22;12773;50.162;8.548;2023-11-19T17:07:16;13.60;99.90
24638;DHT22;12773;50.162;8.548;2023-11-19T17:10:03;13.60;99.90
24638;DHT22;12773;50.162;8.548;2023-11-19T17:12:53;13.60;99.90
24638;DHT22;12773;50.162;8.548;2023-11-19T17:15:40;13.50;99.90
24638;DHT22;12773;50.162;8.548;2023-11-19T17:18:28;13.50;99.90
24638;DHT22;12773;50.162;8.548;2023-11-19T17:21:15;13.40;99.90
24638;DHT22;12773;50.162;8.548;2023-11-19T17:24:03;13.30;99.90
24638;DHT22;12773;50.162;8.548;2023-11-19T17:26:51;13.40;99.90
24638;DHT22;12773;50.162;8.548;2023-11-19T17:29:39;13.30;99.90
24638;DHT22;12773;50.162;8.548;2023-11-19T17:32:27;13.30;99.90
24638;DHT22;12773;50.162;8.548;2023-11-19T17:35:17;13.30;99.90
24638;DHT22;12773;50.162;8.548;2023-11-19T17:38:04;13.20;99.90
24638;DHT22;12773;50.162;8.548;2023-11-19T17:40:53;13.20;99.90
24638;DHT22;12773;50.162;8.548;2023-11-19T17:43:44;13.10;99.90
24638;DHT22;12773;50.162;8.548;2023-11-19T17:46:32;13.00;99.90
24638;DHT22;12773;50.162;8.548;2023-11-19T17:49:19;12.90;99.90
24638;DHT22;12773;50.162;8.548;2023-11-19T17:52:07;12.80;99.90